sensor_id;sensor_type;location;lat;lon;timestamp;temperature;humidity
39095;DHT22;24840;47.508;19.376;2023-03-04T00:01:41;-0.70;99.90
39095;DHT22;24840;47.508;19.376;2023-03-04T00:04:06;-0.80;99.90
39095;DHT22;24840;47.508;19.376;2023-03-04T00:06:32;-0.80;99.90
39095;DHT22;24840;47.508;19.376;2023-03-04T00:08:58;-0.90;99.90
39095;DHT22;24840;47.508;19.376;2023-03-04T00:11:24;-0.90;99.90
39095;DHT22;24840;47.508;19.376;2023-03-04T00:13:50;-1.00;99.90
39095;DHT22;24840;47.508;19.376;2023-03-04T00:16:15;-0.90;99.90
39095;DHT22;24840;47.508;19.376;2023-03-04T00:18:41;-1.20;99.90
39095;DHT22;24840;47.508;19.376;2023-03-04T00:21:07;-1.30;99.90
39095;DHT22;24840;47.508;19.376;2023-03-04T00:23:32;-1.40;99.90
39095;DHT22;24840;47.508;19.376;2023-03-04T00:25:58;-1.30;99.90
39095;DHT22;24840;47.508;19.376;2023-03-04T00:28:24;-1.30;99.90
39095;DHT22;24840;47.508;19.376;2023-03-04T00:30:49;-1.20;99.90
39095;DHT22;24840;47.508;19.376;2023-03-04T00:33:15;-1.20;99.90
39095;DHT22;24840;47.508;19.376;2023-03-04T00:35:41;-1.40;99.90
39095;DHT22;24840;47.508;19.376;2023-03-04T00:38:07;-1.40;99.90
39095;DHT22;24840;47.508;19.376;2023-03-04T00:40:33;-1.20;99.90
39095;DHT22;24840;47.508;19.376;2023-03-04T00:42:59;-1.30;99.90
39095;DHT22;24840;47.508;19.376;2023-03-04T00:45:25;-1.30;99.90
39095;DHT22;24840;47.508;19.376;2023-03-04T00:47:50;-1.30;99.90
39095;DHT22;24840;47.508;19.376;2023-03-04T00:50:16;-1.30;99.90
39095;DHT22;24840;47.508;19.376;2023-03-04T00:52:42;-1.40;99.90
39095;DHT22;24840;47.508;19.376;2023-03-04T00:55:08;-1.30;99.90
39095;DHT22;24840;47.508;19.376;2023-03-04T00:57:34;-1.20;99.90
39095;DHT22;24840;47.508;19.376;2023-03-04T01:00:00;-1.20;99.90
39095;DHT22;24840;47.508;19.376;2023-03-04T01:02:26;-1.20;99.90
39095;DHT22;24840;47.508;19.376;2023-03-04T01:04:52;-1.20;99.90
39095;DHT22;24840;47.508;19.376;2023-03-04T01:07:17;-1.20;99.90
39095;DHT22;24840;47.508;19.376;2023-03-04T01:09:43;-1.30;99.90
39095;DHT22;24840;47.508;19.376;2023-03-04T01:12:09;-1.30;99.90
39095;DHT22;24840;47.508;19.376;2023-03-04T01:14:35;-1.20;99.90
39095;DHT22;24840;47.508;19.376;2023-03-04T01:17:01;-1.30;99.90
39095;DHT22;24840;47.508;19.376;2023-03-04T01:19:27;-1.30;99.90
39095;DHT22;24840;47.508;19.376;2023-03-04T01:21:53;-1.30;99.90
39095;DHT22;24840;47.508;19.376;2023-03-04T01:24:19;-1.40;99.90
39095;DHT22;24840;47.508;19.376;2023-03-04T01:26:44;-1.40;99.90
39095;DHT22;24840;47.508;19.376;2023-03-04T01:29:10;-1.40;99.90
39095;DHT22;24840;47.508;19.376;2023-03-04T01:31:36;-1.30;99.90
39095;DHT22;24840;47.508;19.376;2023-03-04T01:34:01;-1.40;99.90
39095;DHT22;24840;47.508;19.376;2023-03-04T01:36:27;-1.40;99.90
39095;DHT22;24840;47.508;19.376;2023-03-04T01:38:53;-1.50;99.90
39095;DHT22;24840;47.508;19.376;2023-03-04T01:41:23;-1.50;99.90
39095;DHT22;24840;47.508;19.376;2023-03-04T01:43:50;-1.50;99.90
39095;DHT22;24840;47.508;19.376;2023-03-04T01:46:16;-1.50;99.90
39095;DHT22;24840;47.508;19.376;2023-03-04T01:48:42;-1.50;99.90
39095;DHT22;24840;47.508;19.376;2023-03-04T01:51:14;-1.60;99.90
39095;DHT22;24840;47.508;19.376;2023-03-04T01:53:41;-1.60;99.90
39095;DHT22;24840;47.508;19.376;2023-03-04T01:56:37;-1.80;99.90
39095;DHT22;24840;47.508;19.376;2023-03-04T01:59:13;-1.70;99.90
39095;DHT22;24840;47.508;19.376;2023-03-04T02:01:50;-1.90;99.90
39095;DHT22;24840;47.508;19.376;2023-03-04T02:04:19;-2.00;99.90
39095;DHT22;24840;47.508;19.376;2023-03-04T02:06:46;-1.90;99.90
39095;DHT22;24840;47.508;19.376;2023-03-04T02:09:13;-1.90;99.90
39095;DHT22;24840;47.508;19.376;2023-03-04T02:11:40;-2.00;99.90
39095;DHT22;24840;47.508;19.376;2023-03-04T02:14:06;-1.90;99.90
39095;DHT22;24840;47.508;19.376;2023-03-04T02:16:32;-1.90;99.90
39095;DHT22;24840;47.508;19.376;2023-03-04T02:18:59;-1.90;99.90
39095;DHT22;24840;47.508;19.376;2023-03-04T02:21:30;-2.00;99.90
39095;DHT22;24840;47.508;19.376;2023-03-04T02:26:45;-2.10;99.90
39095;DHT22;24840;47.508;19.376;2023-03-04T02:29:13;-2.30;99.90
39095;DHT22;24840;47.508;19.376;2023-03-04T02:31:49;-2.30;99.90
39095;DHT22;24840;47.508;19.376;2023-03-04T02:34:19;-2.20;99.90
39095;DHT22;24840;47.508;19.376;2023-03-04T02:36:48;-2.10;99.90
39095;DHT22;24840;47.508;19.376;2023-03-04T02:39:29;-2.10;99.90
39095;DHT22;24840;47.508;19.376;2023-03-04T02:41:57;-2.10;99.90
39095;DHT22;24840;47.508;19.376;2023-03-04T02:44:31;-2.20;99.90
39095;DHT22;24840;47.508;19.376;2023-03-04T02:46:57;-2.10;99.90
39095;DHT22;24840;47.508;19.376;2023-03-04T02:49:26;-2.20;99.90
39095;DHT22;24840;47.508;19.376;2023-03-04T02:51:57;-2.20;99.90
39095;DHT22;24840;47.508;19.376;2023-03-04T02:54:24;-2.20;99.90
39095;DHT22;24840;47.508;19.376;2023-03-04T02:56:51;-2.20;99.90
39095;DHT22;24840;47.508;19.376;2023-03-04T02:59:19;-2.40;99.90
39095;DHT22;24840;47.508;19.376;2023-03-04T03:01:45;-2.40;99.90
39095;DHT22;24840;47.508;19.376;2023-03-04T03:04:10;-2.50;99.90
39095;DHT22;24840;47.508;19.376;2023-03-04T03:06:37;-2.50;99.90
39095;DHT22;24840;47.508;19.376;2023-03-04T03:09:03;-2.50;99.90
39095;DHT22;24840;47.508;19.376;2023-03-04T03:11:29;-2.50;99.90
39095;DHT22;24840;47.508;19.376;2023-03-04T03:13:55;-2.40;99.90
39095;DHT22;24840;47.508;19.376;2023-03-04T03:16:21;-2.40;99.90
39095;DHT22;24840;47.508;19.376;2023-03-04T03:18:47;-2.50;99.90
39095;DHT22;24840;47.508;19.376;2023-03-04T03:21:13;-2.60;99.90
39095;DHT22;24840;47.508;19.376;2023-03-04T03:23:39;-2.60;99.90
39095;DHT22;24840;47.508;19.376;2023-03-04T03:26:05;-2.70;99.90
39095;DHT22;24840;47.508;19.376;2023-03-04T03:28:31;-2.80;99.90
39095;DHT22;24840;47.508;19.376;2023-03-04T03:30:57;-2.70;99.90
39095;DHT22;24840;47.508;19.376;2023-03-04T03:33:23;-2.80;99.90
39095;DHT22;24840;47.508;19.376;2023-03-04T03:35:48;-2.80;99.90
39095;DHT22;24840;47.508;19.376;2023-03-04T03:38:14;-2.70;99.90
39095;DHT22;24840;47.508;19.376;2023-03-04T03:40:40;-2.70;99.90
39095;DHT22;24840;47.508;19.376;2023-03-04T03:43:05;-2.90;99.90
39095;DHT22;24840;47.508;19.376;2023-03-04T03:45:31;-3.10;99.90
39095;DHT22;24840;47.508;19.376;2023-03-04T03:47:57;-3.00;99.90
39095;DHT22;24840;47.508;19.376;2023-03-04T03:50:23;-3.00;99.90
39095;DHT22;24840;47.508;19.376;2023-03-04T03:52:48;-2.90;99.90
39095;DHT22;24840;47.508;19.376;2023-03-04T03:55:14;-3.10;99.90
39095;DHT22;24840;47.508;19.376;2023-03-04T03:57:40;-3.00;99.90
39095;DHT22;24840;47.508;19.376;2023-03-04T04:00:07;-3.00;99.90
39095;DHT22;24840;47.508;19.376;2023-03-04T04:02:33;-3.00;99.90
39095;DHT22;24840;47.508;19.376;2023-03-04T04:04:59;-3.00;99.90
39095;DHT22;24840;47.508;19.376;2023-03-04T04:07:24;-3.00;99.90
39095;DHT22;24840;47.508;19.376;2023-03-04T04:09:50;-3.10;99.90
39095;DHT22;24840;47.508;19.376;2023-03-04T04:12:17;-3.10;99.90
39095;DHT22;24840;47.508;19.376;2023-03-04T04:14:43;-3.00;99.90
39095;DHT22;24840;47.508;19.376;2023-03-04T04:17:08;-3.00;99.90
39095;DHT22;24840;47.508;19.376;2023-03-04T04:19:35;-3.10;99.90
39095;DHT22;24840;47.508;19.376;2023-03-04T04:22:02;-3.20;99.90
39095;DHT22;24840;47.508;19.376;2023-03-04T04:24:28;-3.20;99.90
39095;DHT22;24840;47.508;19.376;2023-03-04T04:26:53;-3.30;99.90
39095;DHT22;24840;47.508;19.376;2023-03-04T04:29:19;-3.30;99.90
39095;DHT22;24840;47.508;19.376;2023-03-04T04:31:47;-3.30;99.90
39095;DHT22;24840;47.508;19.376;2023-03-04T04:34:13;-3.30;99.90
39095;DHT22;24840;47.508;19.376;2023-03-04T04:36:39;-3.30;99.90
39095;DHT22;24840;47.508;19.376;2023-03-04T04:39:05;-3.30;99.90
39095;DHT22;24840;47.508;19.376;2023-03-04T04:41:38;-3.40;99.90
39095;DHT22;24840;47.508;19.376;2023-03-04T04:44:04;-3.40;99.90
39095;DHT22;24840;47.508;19.376;2023-03-04T04:46:30;-3.40;99.90
39095;DHT22;24840;47.508;19.376;2023-03-04T04:48:56;-3.40;99.90
39095;DHT22;24840;47.508;19.376;2023-03-04T04:51:22;-3.40;99.90
39095;DHT22;24840;47.508;19.376;2023-03-04T04:53:48;-3.40;99.90
39095;DHT22;24840;47.508;19.376;2023-03-04T04:56:16;-3.50;99.90
39095;DHT22;24840;47.508;19.376;2023-03-04T04:58:43;-3.40;99.90
39095;DHT22;24840;47.508;19.376;2023-03-04T05:01:09;-3.40;99.90
39095;DHT22;24840;47.508;19.376;2023-03-04T05:03:36;-3.40;99.90
39095;DHT22;24840;47.508;19.376;2023-03-04T05:06:03;-3.40;99.90
39095;DHT22;24840;47.508;19.376;2023-03-04T05:08:30;-3.50;99.90
39095;DHT22;24840;47.508;19.376;2023-03-04T05:10:56;-3.50;99.90
39095;DHT22;24840;47.508;19.376;2023-03-04T05:13:21;-3.60;99.90
39095;DHT22;24840;47.508;19.376;2023-03-04T05:15:50;-3.60;99.90
39095;DHT22;24840;47.508;19.376;2023-03-04T05:18:16;-3.70;99.90
39095;DHT22;24840;47.508;19.376;2023-03-04T05:20:42;-3.60;99.90
39095;DHT22;24840;47.508;19.376;2023-03-04T05:23:08;-3.70;99.90
39095;DHT22;24840;47.508;19.376;2023-03-04T05:25:34;-3.50;99.90
39095;DHT22;24840;47.508;19.376;2023-03-04T05:28:00;-3.60;99.90
39095;DHT22;24840;47.508;19.376;2023-03-04T05:30:27;-3.80;99.90
39095;DHT22;24840;47.508;19.376;2023-03-04T05:32:52;-3.70;99.90
39095;DHT22;24840;47.508;19.376;2023-03-04T05:35:18;-3.80;99.90
39095;DHT22;24840;47.508;19.376;2023-03-04T05:37:44;-3.70;99.90
39095;DHT22;24840;47.508;19.376;2023-03-04T05:40:10;-3.70;99.90
39095;DHT22;24840;47.508;19.376;2023-03-04T05:42:36;-3.80;99.90
39095;DHT22;24840;47.508;19.376;2023-03-04T05:45:02;-3.80;99.90
39095;DHT22;24840;47.508;19.376;2023-03-04T05:47:28;-3.70;99.90
39095;DHT22;24840;47.508;19.376;2023-03-04T05:49:54;-3.80;99.90
39095;DHT22;24840;47.508;19.376;2023-03-04T05:52:19;-3.60;99.90
39095;DHT22;24840;47.508;19.376;2023-03-04T05:54:45;-3.50;99.90
39095;DHT22;24840;47.508;19.376;2023-03-04T05:57:11;-3.60;99.90
39095;DHT22;24840;47.508;19.376;2023-03-04T05:59:36;-3.60;99.90
39095;DHT22;24840;47.508;19.376;2023-03-04T06:02:02;-3.50;99.90
39095;DHT22;24840;47.508;19.376;2023-03-04T06:04:28;-3.40;99.90
39095;DHT22;24840;47.508;19.376;2023-03-04T06:06:54;-3.40;99.90
39095;DHT22;24840;47.508;19.376;2023-03-04T06:09:19;-3.40;99.90
39095;DHT22;24840;47.508;19.376;2023-03-04T06:11:46;-3.50;99.90
39095;DHT22;24840;47.508;19.376;2023-03-04T06:14:11;-3.50;99.90
39095;DHT22;24840;47.508;19.376;2023-03-04T06:16:37;-3.50;99.90
39095;DHT22;24840;47.508;19.376;2023-03-04T06:19:03;-3.40;99.90
39095;DHT22;24840;47.508;19.376;2023-03-04T06:21:28;-3.30;99.90
39095;DHT22;24840;47.508;19.376;2023-03-04T06:23:54;-3.20;99.90
39095;DHT22;24840;47.508;19.376;2023-03-04T06:26:20;-3.20;99.90
39095;DHT22;24840;47.508;19.376;2023-03-04T06:28:46;-3.20;99.90
39095;DHT22;24840;47.508;19.376;2023-03-04T06:31:11;-3.10;99.90
39095;DHT22;24840;47.508;19.376;2023-03-04T06:33:37;-3.20;99.90
39095;DHT22;24840;47.508;19.376;2023-03-04T06:36:03;-3.00;99.90
39095;DHT22;24840;47.508;19.376;2023-03-04T06:38:29;-2.90;99.90
39095;DHT22;24840;47.508;19.376;2023-03-04T06:40:54;-2.90;99.90
39095;DHT22;24840;47.508;19.376;2023-03-04T06:43:20;-2.70;99.90
39095;DHT22;24840;47.508;19.376;2023-03-04T06:45:49;-2.60;99.90
39095;DHT22;24840;47.508;19.376;2023-03-04T06:48:15;-2.50;99.90
39095;DHT22;24840;47.508;19.376;2023-03-04T06:50:41;-2.40;99.90
39095;DHT22;24840;47.508;19.376;2023-03-04T06:53:06;-2.20;99.90
39095;DHT22;24840;47.508;19.376;2023-03-04T06:55:32;-2.10;99.90
39095;DHT22;24840;47.508;19.376;2023-03-04T06:57:58;-1.90;99.90
39095;DHT22;24840;47.508;19.376;2023-03-04T07:00:24;-1.80;99.90
39095;DHT22;24840;47.508;19.376;2023-03-04T07:02:50;-1.60;99.90
39095;DHT22;24840;47.508;19.376;2023-03-04T07:05:15;-1.50;99.90
39095;DHT22;24840;47.508;19.376;2023-03-04T07:07:41;-1.30;99.90
39095;DHT22;24840;47.508;19.376;2023-03-04T07:10:08;-1.10;99.90
39095;DHT22;24840;47.508;19.376;2023-03-04T07:12:35;-0.80;99.90
39095;DHT22;24840;47.508;19.376;2023-03-04T07:15:01;-0.50;99.90
39095;DHT22;24840;47.508;19.376;2023-03-04T07:17:27;-0.20;99.90
39095;DHT22;24840;47.508;19.376;2023-03-04T07:19:52;0.00;99.90
39095;DHT22;24840;47.508;19.376;2023-03-04T07:22:18;0.50;99.90
39095;DHT22;24840;47.508;19.376;2023-03-04T07:24:44;0.80;99.90
39095;DHT22;24840;47.508;19.376;2023-03-04T07:27:10;1.10;99.90
39095;DHT22;24840;47.508;19.376;2023-03-04T07:29:35;1.60;99.90
39095;DHT22;24840;47.508;19.376;2023-03-04T07:32:01;1.80;99.90
39095;DHT22;24840;47.508;19.376;2023-03-04T07:34:27;1.90;99.90
39095;DHT22;24840;47.508;19.376;2023-03-04T07:36:52;2.30;99.90
39095;DHT22;24840;47.508;19.376;2023-03-04T07:39:18;2.60;99.90
39095;DHT22;24840;47.508;19.376;2023-03-04T07:41:44;3.00;99.90
39095;DHT22;24840;47.508;19.376;2023-03-04T07:44:11;3.20;99.90
39095;DHT22;24840;47.508;19.376;2023-03-04T07:46:37;3.60;99.90
39095;DHT22;24840;47.508;19.376;2023-03-04T07:49:03;3.80;99.90
39095;DHT22;24840;47.508;19.376;2023-03-04T07:51:29;4.00;99.90
39095;DHT22;24840;47.508;19.376;2023-03-04T07:53:58;4.40;99.90
39095;DHT22;24840;47.508;19.376;2023-03-04T07:56:26;4.70;99.90
39095;DHT22;24840;47.508;19.376;2023-03-04T07:58:52;5.10;99.90
39095;DHT22;24840;47.508;19.376;2023-03-04T08:01:28;5.20;99.90
39095;DHT22;24840;47.508;19.376;2023-03-04T08:03:54;5.60;99.90
39095;DHT22;24840;47.508;19.376;2023-03-04T08:06:20;6.00;99.90
39095;DHT22;24840;47.508;19.376;2023-03-04T08:08:47;6.30;99.90
39095;DHT22;24840;47.508;19.376;2023-03-04T08:11:18;6.40;97.30
39095;DHT22;24840;47.508;19.376;2023-03-04T08:13:44;6.80;98.40
39095;DHT22;24840;47.508;19.376;2023-03-04T08:16:14;6.60;94.80
39095;DHT22;24840;47.508;19.376;2023-03-04T08:18:44;7.20;97.80
39095;DHT22;24840;47.508;19.376;2023-03-04T08:21:11;6.90;93.60
39095;DHT22;24840;47.508;19.376;2023-03-04T08:23:38;7.00;93.90
39095;DHT22;24840;47.508;19.376;2023-03-04T08:26:08;7.10;93.70
39095;DHT22;24840;47.508;19.376;2023-03-04T08:28:34;7.00;92.50
39095;DHT22;24840;47.508;19.376;2023-03-04T08:31:00;7.60;91.80
39095;DHT22;24840;47.508;19.376;2023-03-04T08:33:26;7.90;92.70
39095;DHT22;24840;47.508;19.376;2023-03-04T08:35:51;7.70;90.20
39095;DHT22;24840;47.508;19.376;2023-03-04T08:38:17;7.90;90.20
39095;DHT22;24840;47.508;19.376;2023-03-04T08:40:43;8.40;91.20
39095;DHT22;24840;47.508;19.376;2023-03-04T08:43:09;8.30;87.90
39095;DHT22;24840;47.508;19.376;2023-03-04T08:45:35;8.50;88.60
39095;DHT22;24840;47.508;19.376;2023-03-04T08:48:00;9.00;89.90
39095;DHT22;24840;47.508;19.376;2023-03-04T08:50:26;9.00;85.20
39095;DHT22;24840;47.508;19.376;2023-03-04T08:52:58;9.60;84.30
39095;DHT22;24840;47.508;19.376;2023-03-04T08:55:23;9.60;78.00
39095;DHT22;24840;47.508;19.376;2023-03-04T08:57:49;10.10;78.20
39095;DHT22;24840;47.508;19.376;2023-03-04T09:00:15;10.10;80.60
39095;DHT22;24840;47.508;19.376;2023-03-04T09:02:41;10.10;76.10
39095;DHT22;24840;47.508;19.376;2023-03-04T09:05:07;10.60;77.00
39095;DHT22;24840;47.508;19.376;2023-03-04T09:07:33;10.90;77.10
39095;DHT22;24840;47.508;19.376;2023-03-04T09:09:59;11.80;76.70
39095;DHT22;24840;47.508;19.376;2023-03-04T09:12:25;11.50;74.30
39095;DHT22;24840;47.508;19.376;2023-03-04T09:14:50;11.50;72.40
39095;DHT22;24840;47.508;19.376;2023-03-04T09:17:16;11.40;67.00
39095;DHT22;24840;47.508;19.376;2023-03-04T09:19:42;11.90;73.60
39095;DHT22;24840;47.508;19.376;2023-03-04T09:22:07;12.90;69.00
39095;DHT22;24840;47.508;19.376;2023-03-04T09:24:33;13.30;70.30
39095;DHT22;24840;47.508;19.376;2023-03-04T09:26:59;12.00;63.10
39095;DHT22;24840;47.508;19.376;2023-03-04T09:29:24;12.10;66.20
39095;DHT22;24840;47.508;19.376;2023-03-04T09:31:50;12.60;68.00
39095;DHT22;24840;47.508;19.376;2023-03-04T09:34:16;12.60;65.90
39095;DHT22;24840;47.508;19.376;2023-03-04T09:36:42;12.80;65.10
39095;DHT22;24840;47.508;19.376;2023-03-04T09:39:08;13.60;60.90
39095;DHT22;24840;47.508;19.376;2023-03-04T09:41:41;13.90;65.50
39095;DHT22;24840;47.508;19.376;2023-03-04T09:44:30;12.70;62.90
39095;DHT22;24840;47.508;19.376;2023-03-04T09:47:03;13.40;62.60
39095;DHT22;24840;47.508;19.376;2023-03-04T09:49:29;13.90;63.00
39095;DHT22;24840;47.508;19.376;2023-03-04T09:52:20;14.60;60.80
39095;DHT22;24840;47.508;19.376;2023-03-04T10:00:23;12.90;59.10
39095;DHT22;24840;47.508;19.376;2023-03-04T10:06:03;13.50;59.40
39095;DHT22;24840;47.508;19.376;2023-03-04T10:09:03;12.50;59.10
39095;DHT22;24840;47.508;19.376;2023-03-04T10:11:47;14.20;60.50
39095;DHT22;24840;47.508;19.376;2023-03-04T10:22:31;14.20;61.80
39095;DHT22;24840;47.508;19.376;2023-03-04T10:24:59;14.60;59.50
39095;DHT22;24840;47.508;19.376;2023-03-04T10:27:27;14.60;56.10
39095;DHT22;24840;47.508;19.376;2023-03-04T10:29:57;14.50;57.70
39095;DHT22;24840;47.508;19.376;2023-03-04T10:32:23;14.60;58.40
39095;DHT22;24840;47.508;19.376;2023-03-04T10:34:49;14.90;55.10
39095;DHT22;24840;47.508;19.376;2023-03-04T10:37:15;14.40;55.40
39095;DHT22;24840;47.508;19.376;2023-03-04T10:39:43;15.10;55.40
39095;DHT22;24840;47.508;19.376;2023-03-04T10:44:52;15.60;52.80
39095;DHT22;24840;47.508;19.376;2023-03-04T10:47:18;14.70;54.30
39095;DHT22;24840;47.508;19.376;2023-03-04T10:49:58;15.00;52.30
39095;DHT22;24840;47.508;19.376;2023-03-04T10:52:37;14.10;56.10
39095;DHT22;24840;47.508;19.376;2023-03-04T10:55:28;13.90;56.40
39095;DHT22;24840;47.508;19.376;2023-03-04T10:57:56;15.00;55.80
39095;DHT22;24840;47.508;19.376;2023-03-04T11:00:36;15.20;56.00
39095;DHT22;24840;47.508;19.376;2023-03-04T11:06:17;13.30;59.40
39095;DHT22;24840;47.508;19.376;2023-03-04T11:08:43;14.50;58.10
39095;DHT22;24840;47.508;19.376;2023-03-04T11:11:41;14.60;58.20
39095;DHT22;24840;47.508;19.376;2023-03-04T11:16:55;14.10;58.10
39095;DHT22;24840;47.508;19.376;2023-03-04T11:19:24;13.50;58.10
39095;DHT22;24840;47.508;19.376;2023-03-04T11:21:53;14.50;60.40
39095;DHT22;24840;47.508;19.376;2023-03-04T11:24:27;14.50;58.20
39095;DHT22;24840;47.508;19.376;2023-03-04T11:27:09;15.20;57.60
39095;DHT22;24840;47.508;19.376;2023-03-04T11:29:59;14.50;57.20
39095;DHT22;24840;47.508;19.376;2023-03-04T11:32:36;16.00;59.20
39095;DHT22;24840;47.508;19.376;2023-03-04T11:35:24;16.00;54.40
39095;DHT22;24840;47.508;19.376;2023-03-04T11:38:05;15.80;56.70
39095;DHT22;24840;47.508;19.376;2023-03-04T11:43:15;16.20;54.10
39095;DHT22;24840;47.508;19.376;2023-03-04T11:45:52;14.30;56.00
39095;DHT22;24840;47.508;19.376;2023-03-04T11:48:47;14.50;60.40
39095;DHT22;24840;47.508;19.376;2023-03-04T11:56:34;15.80;54.80
39095;DHT22;24840;47.508;19.376;2023-03-04T12:02:12;15.00;56.80
39095;DHT22;24840;47.508;19.376;2023-03-04T12:10:21;15.50;56.30
39095;DHT22;24840;47.508;19.376;2023-03-04T12:26:46;15.30;53.50
39095;DHT22;24840;47.508;19.376;2023-03-04T12:31:52;14.00;55.10
39095;DHT22;24840;47.508;19.376;2023-03-04T12:35:03;13.40;57.60
39095;DHT22;24840;47.508;19.376;2023-03-04T12:40:49;14.50;57.00
39095;DHT22;24840;47.508;19.376;2023-03-04T12:43:41;15.70;53.40
39095;DHT22;24840;47.508;19.376;2023-03-04T12:47:06;15.80;54.20
39095;DHT22;24840;47.508;19.376;2023-03-04T12:49:34;17.00;54.00
39095;DHT22;24840;47.508;19.376;2023-03-04T12:54:55;15.90;52.20
39095;DHT22;24840;47.508;19.376;2023-03-04T12:57:29;15.90;52.70
39095;DHT22;24840;47.508;19.376;2023-03-04T13:02:40;16.60;50.40
39095;DHT22;24840;47.508;19.376;2023-03-04T13:08:32;15.70;53.00
39095;DHT22;24840;47.508;19.376;2023-03-04T13:11:42;15.20;51.20
39095;DHT22;24840;47.508;19.376;2023-03-04T13:16:57;14.20;54.00
39095;DHT22;24840;47.508;19.376;2023-03-04T13:22:41;14.60;53.70
39095;DHT22;24840;47.508;19.376;2023-03-04T13:43:51;15.10;51.70
39095;DHT22;24840;47.508;19.376;2023-03-04T13:51:36;14.70;52.90
39095;DHT22;24840;47.508;19.376;2023-03-04T13:54:34;14.20;52.30
39095;DHT22;24840;47.508;19.376;2023-03-04T13:59:37;15.00;51.20
39095;DHT22;24840;47.508;19.376;2023-03-04T14:04:46;14.30;52.60
39095;DHT22;24840;47.508;19.376;2023-03-04T14:07:29;14.50;53.20
39095;DHT22;24840;47.508;19.376;2023-03-04T14:12:27;14.10;52.00
39095;DHT22;24840;47.508;19.376;2023-03-04T14:14:58;14.40;53.50
39095;DHT22;24840;47.508;19.376;2023-03-04T14:17:28;15.00;49.70
39095;DHT22;24840;47.508;19.376;2023-03-04T14:19:55;14.20;49.00
39095;DHT22;24840;47.508;19.376;2023-03-04T14:27:27;14.10;48.90
39095;DHT22;24840;47.508;19.376;2023-03-04T14:29:55;14.10;47.80
39095;DHT22;24840;47.508;19.376;2023-03-04T14:32:22;13.60;49.10
39095;DHT22;24840;47.508;19.376;2023-03-04T14:34:50;13.70;49.10
39095;DHT22;24840;47.508;19.376;2023-03-04T14:37:24;13.90;49.40
39095;DHT22;24840;47.508;19.376;2023-03-04T14:39:55;14.30;50.60
39095;DHT22;24840;47.508;19.376;2023-03-04T14:42:24;13.70;49.90
39095;DHT22;24840;47.508;19.376;2023-03-04T14:44:54;13.60;51.30
39095;DHT22;24840;47.508;19.376;2023-03-04T14:47:35;14.30;51.90
39095;DHT22;24840;47.508;19.376;2023-03-04T14:50:09;14.60;50.20
39095;DHT22;24840;47.508;19.376;2023-03-04T14:52:39;13.70;50.10
39095;DHT22;24840;47.508;19.376;2023-03-04T14:57:37;14.30;50.40
39095;DHT22;24840;47.508;19.376;2023-03-04T15:03:20;13.70;50.60
39095;DHT22;24840;47.508;19.376;2023-03-04T15:05:44;13.60;49.00
39095;DHT22;24840;47.508;19.376;2023-03-04T15:11:02;13.30;49.70
39095;DHT22;24840;47.508;19.376;2023-03-04T15:13:44;13.30;50.70
39095;DHT22;24840;47.508;19.376;2023-03-04T15:16:13;13.50;49.50
39095;DHT22;24840;47.508;19.376;2023-03-04T15:19:02;13.10;50.70
39095;DHT22;24840;47.508;19.376;2023-03-04T15:21:31;12.80;51.10
39095;DHT22;24840;47.508;19.376;2023-03-04T15:23:58;13.00;52.30
39095;DHT22;24840;47.508;19.376;2023-03-04T15:26:24;13.40;52.60
39095;DHT22;24840;47.508;19.376;2023-03-04T15:28:51;13.10;53.00
39095;DHT22;24840;47.508;19.376;2023-03-04T15:31:22;12.70;53.10
39095;DHT22;24840;47.508;19.376;2023-03-04T15:33:48;12.50;52.80
39095;DHT22;24840;47.508;19.376;2023-03-04T15:36:16;12.60;53.00
39095;DHT22;24840;47.508;19.376;2023-03-04T15:38:45;12.50;54.10
39095;DHT22;24840;47.508;19.376;2023-03-04T15:41:23;12.60;54.20
39095;DHT22;24840;47.508;19.376;2023-03-04T15:43:54;12.00;52.90
39095;DHT22;24840;47.508;19.376;2023-03-04T15:46:20;11.60;52.90
39095;DHT22;24840;47.508;19.376;2023-03-04T15:48:48;11.80;55.40
39095;DHT22;24840;47.508;19.376;2023-03-04T15:51:21;11.70;54.20
39095;DHT22;24840;47.508;19.376;2023-03-04T15:53:57;11.50;55.40
39095;DHT22;24840;47.508;19.376;2023-03-04T15:56:32;11.20;54.60
39095;DHT22;24840;47.508;19.376;2023-03-04T15:59:08;11.00;55.10
39095;DHT22;24840;47.508;19.376;2023-03-04T16:01:34;10.60;55.00
39095;DHT22;24840;47.508;19.376;2023-03-04T16:03:59;10.30;55.90
39095;DHT22;24840;47.508;19.376;2023-03-04T16:06:28;10.10;56.20
39095;DHT22;24840;47.508;19.376;2023-03-04T16:08:55;9.90;55.80
39095;DHT22;24840;47.508;19.376;2023-03-04T16:11:26;9.80;56.60
39095;DHT22;24840;47.508;19.376;2023-03-04T16:13:52;9.70;57.20
39095;DHT22;24840;47.508;19.376;2023-03-04T16:16:18;9.60;57.40
39095;DHT22;24840;47.508;19.376;2023-03-04T16:18:44;9.50;58.00
39095;DHT22;24840;47.508;19.376;2023-03-04T16:21:16;9.20;58.50
39095;DHT22;24840;47.508;19.376;2023-03-04T16:23:43;9.10;58.70
39095;DHT22;24840;47.508;19.376;2023-03-04T16:26:36;8.80;58.50
39095;DHT22;24840;47.508;19.376;2023-03-04T16:29:02;8.70;58.80
39095;DHT22;24840;47.508;19.376;2023-03-04T16:31:27;8.50;57.10
39095;DHT22;24840;47.508;19.376;2023-03-04T16:33:53;8.50;58.00
39095;DHT22;24840;47.508;19.376;2023-03-04T16:36:23;8.30;57.80
39095;DHT22;24840;47.508;19.376;2023-03-04T16:38:50;8.30;59.30
39095;DHT22;24840;47.508;19.376;2023-03-04T16:41:20;8.10;59.70
39095;DHT22;24840;47.508;19.376;2023-03-04T16:43:47;8.00;59.90
39095;DHT22;24840;47.508;19.376;2023-03-04T16:46:13;7.90;59.90
39095;DHT22;24840;47.508;19.376;2023-03-04T16:48:39;7.80;60.70
39095;DHT22;24840;47.508;19.376;2023-03-04T16:51:14;7.70;61.20
39095;DHT22;24840;47.508;19.376;2023-03-04T16:53:42;7.50;61.80
39095;DHT22;24840;47.508;19.376;2023-03-04T16:56:18;7.50;61.90
39095;DHT22;24840;47.508;19.376;2023-03-04T16:58:44;7.40;63.90
39095;DHT22;24840;47.508;19.376;2023-03-04T17:01:19;7.40;63.30
39095;DHT22;24840;47.508;19.376;2023-03-04T17:03:45;7.20;63.50
39095;DHT22;24840;47.508;19.376;2023-03-04T17:06:12;7.10;64.00
39095;DHT22;24840;47.508;19.376;2023-03-04T17:08:39;7.00;64.90
39095;DHT22;24840;47.508;19.376;2023-03-04T17:11:04;6.90;65.50
39095;DHT22;24840;47.508;19.376;2023-03-04T17:13:30;6.80;65.50
39095;DHT22;24840;47.508;19.376;2023-03-04T17:16:00;6.70;65.70
39095;DHT22;24840;47.508;19.376;2023-03-04T17:18:27;6.60;66.40
39095;DHT22;24840;47.508;19.376;2023-03-04T17:20:53;6.60;67.90
39095;DHT22;24840;47.508;19.376;2023-03-04T17:23:25;6.50;67.70
39095;DHT22;24840;47.508;19.376;2023-03-04T17:25:56;6.50;68.10
39095;DHT22;24840;47.508;19.376;2023-03-04T17:28:22;6.40;68.70
39095;DHT22;24840;47.508;19.376;2023-03-04T17:30:47;6.30;68.70
39095;DHT22;24840;47.508;19.376;2023-03-04T17:33:13;6.20;69.10
39095;DHT22;24840;47.508;19.376;2023-03-04T17:35:39;6.20;68.90